createdAt,value
2023-03-20T00:01:25.189Z,22.02
2023-03-20T00:03:58.101Z,23.75
2023-03-20T00:06:31.090Z,26.52
2023-03-20T00:09:07.127Z,20.17
2023-03-20T00:11:43.635Z,25.42
2023-03-20T00:14:17.545Z,20.55
2023-03-20T00:16:51.457Z,16.73
2023-03-20T00:19:26.245Z,15.85
2023-03-20T00:21:59.198Z,21.85
2023-03-20T00:24:32.007Z,22.58
2023-03-20T00:27:06.358Z,20.70
2023-03-20T00:29:38.917Z,22.83
2023-03-20T00:32:13.572Z,19.77
2023-03-20T00:34:46.174Z,23.83
2023-03-20T00:37:19.256Z,23.25
2023-03-20T00:39:51.833Z,18.88
2023-03-20T00:42:25.161Z,21.77
2023-03-20T00:44:59.922Z,19.33
2023-03-20T00:47:35.319Z,24.38
2023-03-20T00:50:15.725Z,17.00
2023-03-20T00:52:49.274Z,20.33
2023-03-20T00:55:23.118Z,24.55
2023-03-20T00:58:00.940Z,29.95
2023-03-20T01:00:33.980Z,25.15
2023-03-20T01:03:17.917Z,25.27
2023-03-20T01:05:53.696Z,23.80
2023-03-20T01:08:27.002Z,21.85
2023-03-20T01:10:59.657Z,24.13
2023-03-20T01:13:33.105Z,24.27
2023-03-20T01:16:05.857Z,20.20
2023-03-20T01:18:38.831Z,29.27
2023-03-20T01:21:12.525Z,22.55
2023-03-20T01:23:45.873Z,20.40
2023-03-20T01:26:29.266Z,22.73
2023-03-20T01:29:02.504Z,21.45
2023-03-20T01:31:36.021Z,20.88
2023-03-20T01:34:10.966Z,24.27
2023-03-20T01:36:51.480Z,12.45
2023-03-20T01:39:30.710Z,20.33
2023-03-20T01:42:06.152Z,19.42
2023-03-20T01:44:40.376Z,21.02
2023-03-20T01:47:16.882Z,12.82
2023-03-20T01:50:09.681Z,18.60
2023-03-20T01:52:42.534Z,16.48
2023-03-20T01:55:15.766Z,20.05
2023-03-20T01:57:52.646Z,15.50
2023-03-20T02:00:26.039Z,14.07
2023-03-20T02:02:58.843Z,18.30
2023-03-20T02:05:51.933Z,18.15
2023-03-20T02:08:28.670Z,17.15
2023-03-20T02:11:02.845Z,21.05
2023-03-20T02:13:37.230Z,14.68
2023-03-20T02:16:10.270Z,20.92
2023-03-20T02:19:02.422Z,28.98
2023-03-20T02:21:53.663Z,18.70
2023-03-20T02:24:45.335Z,24.20
2023-03-20T02:27:19.690Z,21.10
2023-03-20T02:30:20.331Z,19.73
2023-03-20T02:32:53.370Z,20.77
2023-03-20T02:35:38.992Z,17.88
2023-03-20T02:38:12.035Z,29.48
2023-03-20T02:40:46.876Z,21.15
2023-03-20T02:43:29.745Z,16.08
2023-03-20T02:46:11.091Z,17.45
2023-03-20T02:49:01.373Z,20.17
2023-03-20T02:51:38.446Z,17.10
2023-03-20T02:54:18.704Z,19.08
2023-03-20T02:56:52.535Z,17.70
2023-03-20T02:59:41.897Z,23.30
2023-03-20T03:02:18.044Z,15.25
2023-03-20T03:04:53.536Z,25.90
2023-03-20T03:07:27.597Z,24.33
2023-03-20T03:10:02.563Z,18.25
2023-03-20T03:12:40.055Z,16.73
2023-03-20T03:15:16.088Z,26.02
2023-03-20T03:17:49.883Z,25.15
2023-03-20T03:20:25.466Z,19.02
2023-03-20T03:22:58.018Z,26.67
2023-03-20T03:25:35.182Z,20.33
2023-03-20T03:28:26.723Z,31.02
2023-03-20T03:31:00.747Z,15.70
2023-03-20T03:33:34.184Z,17.00
2023-03-20T03:36:07.249Z,19.98
2023-03-20T03:38:45.050Z,21.17
2023-03-20T03:41:24.942Z,27.33
2023-03-20T03:43:58.953Z,23.90
2023-03-20T03:46:41.384Z,20.33
2023-03-20T03:49:17.331Z,26.17
2023-03-20T03:51:53.989Z,24.15
2023-03-20T03:54:46.878Z,25.92
2023-03-20T03:57:42.514Z,26.95
2023-03-20T04:00:21.032Z,27.90
2023-03-20T04:02:56.437Z,22.77
2023-03-20T04:05:31.831Z,22.50
2023-03-20T04:08:06.104Z,46.58
2023-03-20T04:10:38.877Z,59.22
2023-03-20T04:13:14.435Z,53.40
2023-03-20T04:15:47.666Z,43.03
2023-03-20T04:18:20.827Z,26.42
2023-03-20T04:20:55.082Z,25.55
2023-03-20T04:23:28.439Z,27.02
2023-03-20T04:26:02.044Z,25.13
2023-03-20T04:28:36.056Z,31.73
2023-03-20T04:31:23.845Z,25.45
2023-03-20T04:34:23.531Z,18.58
2023-03-20T04:37:15.728Z,22.88
2023-03-20T04:39:55.202Z,30.60
2023-03-20T04:42:27.817Z,21.70
2023-03-20T04:45:07.762Z,18.55
2023-03-20T04:47:42.822Z,28.75
2023-03-20T04:50:16.318Z,27.33
2023-03-20T04:52:49.978Z,22.77
2023-03-20T04:55:23.145Z,22.95
2023-03-20T04:57:56.716Z,23.73
2023-03-20T05:00:31.955Z,25.02
2023-03-20T05:03:04.705Z,21.45
2023-03-20T05:05:38.449Z,23.38
2023-03-20T05:08:11.622Z,22.60
2023-03-20T05:10:45.870Z,28.05
2023-03-20T05:13:36.670Z,26.27
2023-03-20T05:16:26.616Z,30.65
2023-03-20T05:19:22.860Z,35.63
2023-03-20T05:22:03.857Z,27.70
2023-03-20T05:24:59.253Z,36.25
2023-03-20T05:27:47.556Z,29.75
2023-03-20T05:30:38.617Z,34.92
2023-03-20T05:33:30.114Z,28.67
2023-03-20T05:36:14.765Z,35.88
2023-03-20T05:39:04.661Z,46.03
2023-03-20T05:41:49.013Z,49.40
2023-03-20T05:44:36.884Z,47.70
2023-03-20T05:47:32.262Z,36.88
2023-03-20T05:50:31.792Z,33.92
2023-03-20T05:53:07.854Z,31.23
2023-03-20T05:58:54.441Z,34.40
2023-03-20T06:01:41.435Z,26.83
2023-03-20T06:04:26.295Z,25.63
2023-03-20T06:07:25.153Z,27.15
2023-03-20T06:10:05.932Z,30.10
2023-03-20T06:12:39.336Z,39.05
2023-03-20T06:15:13.098Z,30.10
2023-03-20T06:17:50.783Z,30.75
2023-03-20T06:20:23.709Z,32.10
2023-03-20T06:22:56.841Z,33.35
2023-03-20T06:25:30.389Z,39.28
2023-03-20T06:28:04.067Z,38.15
2023-03-20T06:30:37.700Z,46.13
2023-03-20T06:33:10.911Z,32.50
2023-03-20T06:35:58.151Z,44.53
2023-03-20T06:38:33.342Z,34.90
2023-03-20T06:41:16.761Z,30.80
2023-03-20T06:43:54.854Z,31.02
2023-03-20T06:46:30.395Z,39.47
2023-03-20T06:49:04.193Z,38.47
2023-03-20T06:51:37.553Z,37.95
2023-03-20T06:54:11.855Z,41.42
2023-03-20T06:56:44.369Z,37.67
2023-03-20T06:59:17.292Z,52.28
2023-03-20T07:01:50.942Z,48.75
2023-03-20T07:04:24.246Z,47.72
2023-03-20T07:07:00.432Z,38.58
2023-03-20T07:09:33.670Z,47.97
2023-03-20T07:12:10.390Z,47.05
2023-03-20T07:14:43.447Z,47.22
2023-03-20T07:17:20.534Z,31.30
2023-03-20T07:19:53.462Z,34.72
2023-03-20T07:22:27.104Z,40.10
2023-03-20T07:25:12.756Z,42.55
2023-03-20T07:27:50.931Z,46.45
2023-03-20T07:30:27.440Z,33.78
2023-03-20T07:33:01.113Z,36.97
2023-03-20T07:35:37.584Z,44.88
2023-03-20T07:38:10.411Z,48.90
2023-03-20T07:40:54.155Z,72.68
2023-03-20T07:43:26.710Z,40.42
2023-03-20T07:46:05.897Z,31.40
2023-03-20T07:48:40.296Z,32.30
2023-03-20T07:51:13.247Z,36.80
2023-03-20T07:53:46.406Z,31.95
2023-03-20T07:56:19.479Z,32.58
2023-03-20T07:58:52.017Z,45.25
2023-03-20T08:01:25.032Z,38.90
2023-03-20T08:03:57.778Z,35.30
2023-03-20T08:06:30.811Z,37.00
2023-03-20T08:09:03.630Z,27.95
2023-03-20T08:11:36.513Z,36.30
2023-03-20T08:14:09.248Z,33.90
2023-03-20T08:16:42.227Z,30.83
2023-03-20T08:19:15.026Z,28.90
2023-03-20T08:21:48.747Z,26.70
2023-03-20T08:24:22.176Z,31.58
2023-03-20T08:26:55.149Z,30.52
2023-03-20T08:29:27.822Z,46.53
2023-03-20T08:32:00.864Z,31.23
2023-03-20T08:34:33.941Z,38.88
2023-03-20T08:37:10.316Z,25.42
2023-03-20T08:39:43.341Z,29.75
2023-03-20T08:42:16.347Z,22.17
2023-03-20T08:44:49.140Z,39.60
2023-03-20T08:47:22.662Z,29.20
2023-03-20T08:49:55.189Z,29.52
2023-03-20T08:52:28.552Z,27.13
2023-03-20T08:55:01.308Z,28.08
2023-03-20T08:57:34.260Z,30.00
2023-03-20T09:00:07.674Z,39.25
2023-03-20T09:02:40.720Z,31.08
2023-03-20T09:05:13.420Z,36.78
2023-03-20T09:07:46.610Z,23.00
2023-03-20T09:10:19.249Z,33.15
2023-03-20T09:12:52.135Z,28.48
2023-03-20T09:15:24.743Z,29.30
2023-03-20T09:17:57.726Z,24.05
2023-03-20T09:20:30.210Z,25.30
2023-03-20T09:23:03.109Z,23.38
2023-03-20T09:25:36.129Z,31.38
2023-03-20T09:28:09.437Z,25.13
2023-03-20T09:30:43.997Z,23.38
2023-03-20T09:33:18.887Z,29.00
2023-03-20T09:35:51.766Z,26.60
2023-03-20T09:38:24.788Z,21.15
2023-03-20T09:40:59.123Z,23.80
2023-03-20T09:43:55.163Z,26.90
2023-03-20T09:46:36.685Z,20.65
2023-03-20T09:49:15.840Z,26.70
2023-03-20T09:51:56.299Z,31.15
2023-03-20T09:54:52.764Z,29.38
2023-03-20T09:57:35.203Z,28.23
2023-03-20T10:00:13.002Z,38.42
2023-03-20T10:02:45.731Z,23.63
2023-03-20T10:05:27.255Z,21.77
2023-03-20T10:08:01.497Z,22.83
2023-03-20T10:10:42.845Z,19.27
2023-03-20T10:13:18.205Z,18.10
2023-03-20T10:15:57.403Z,19.17
2023-03-20T10:18:31.852Z,15.55
2023-03-20T10:21:14.415Z,17.10
2023-03-20T10:23:56.762Z,19.48
2023-03-20T10:26:31.389Z,18.60
2023-03-20T10:29:24.525Z,20.48
2023-03-20T10:32:13.340Z,24.65
2023-03-20T10:34:46.227Z,20.05
2023-03-20T10:37:31.281Z,25.10
2023-03-20T10:40:24.262Z,21.48
2023-03-20T10:42:59.599Z,18.77
2023-03-20T10:45:50.819Z,18.02
2023-03-20T10:48:23.784Z,20.80
2023-03-20T10:50:57.536Z,17.70
2023-03-20T10:53:31.972Z,18.65
2023-03-20T10:56:11.726Z,21.15
2023-03-20T10:58:47.475Z,24.15
2023-03-20T11:01:21.341Z,19.73
2023-03-20T11:03:56.129Z,31.75
2023-03-20T11:06:32.628Z,23.92
2023-03-20T11:09:17.390Z,21.98
2023-03-20T11:11:52.262Z,22.65
2023-03-20T11:14:27.474Z,27.02
2023-03-20T11:17:01.339Z,20.17
2023-03-20T11:19:38.374Z,22.50
2023-03-20T11:22:23.191Z,32.60
2023-03-20T11:25:02.071Z,20.33
2023-03-20T11:27:35.316Z,17.95
2023-03-20T11:30:16.195Z,17.83
2023-03-20T11:32:49.975Z,14.90
2023-03-20T11:35:29.376Z,24.63
2023-03-20T11:38:15.444Z,16.73
2023-03-20T11:40:49.165Z,14.57
2023-03-20T11:43:22.919Z,18.05
2023-03-20T11:46:00.867Z,21.50
2023-03-20T11:48:37.438Z,22.45
2023-03-20T11:51:11.673Z,23.17
2023-03-20T11:53:48.204Z,22.33
2023-03-20T11:56:23.983Z,28.42
2023-03-20T11:58:58.406Z,26.48
2023-03-20T12:01:38.229Z,67.00
2023-03-20T12:04:14.511Z,35.70
2023-03-20T12:06:51.961Z,22.45
2023-03-20T12:09:24.752Z,42.60
2023-03-20T12:12:07.381Z,26.70
2023-03-20T12:14:52.021Z,44.25
2023-03-20T12:17:27.800Z,26.77
2023-03-20T12:20:03.905Z,17.25
2023-03-20T12:22:40.469Z,20.33
2023-03-20T12:25:13.111Z,18.40
2023-03-20T12:28:04.425Z,16.83
2023-03-20T12:30:47.710Z,24.88
2023-03-20T12:33:24.649Z,17.50
2023-03-20T12:35:58.631Z,18.67
2023-03-20T12:38:32.550Z,18.20
2023-03-20T12:41:05.497Z,39.45
2023-03-20T12:43:51.317Z,21.52
2023-03-20T12:46:27.045Z,16.00
2023-03-20T12:49:06.121Z,14.50
2023-03-20T12:51:38.707Z,16.58
2023-03-20T12:54:18.582Z,18.02
2023-03-20T12:57:07.870Z,14.18
2023-03-20T13:00:01.008Z,15.50
2023-03-20T13:02:34.046Z,10.38
2023-03-20T13:05:13.355Z,8.13
2023-03-20T13:08:01.146Z,12.55
2023-03-20T13:10:37.475Z,8.15
2023-03-20T13:13:16.405Z,9.52
2023-03-20T13:15:57.153Z,8.13
2023-03-20T13:18:34.063Z,9.13
2023-03-20T13:21:10.965Z,44.80
2023-03-20T13:23:43.542Z,19.15
2023-03-20T13:26:19.537Z,5.60
2023-03-20T13:29:07.215Z,9.95
2023-03-20T13:31:40.173Z,8.45
2023-03-20T13:34:12.738Z,8.98
2023-03-20T13:37:19.899Z,6.25
2023-03-20T13:39:55.176Z,37.97
2023-03-20T13:42:31.359Z,6.90
2023-03-20T13:45:30.579Z,9.77
2023-03-20T13:48:10.028Z,7.82
2023-03-20T13:51:02.178Z,20.98
2023-03-20T13:53:56.174Z,16.60
2023-03-20T13:56:34.816Z,14.57
2023-03-20T13:59:17.011Z,17.75
2023-03-20T14:04:24.932Z,15.80
2023-03-20T14:06:58.208Z,7.53
2023-03-20T14:09:35.455Z,10.93
2023-03-20T14:12:09.848Z,10.55
2023-03-20T14:14:58.948Z,14.15
2023-03-20T14:17:32.561Z,9.57
2023-03-20T14:20:14.065Z,8.10
2023-03-20T14:22:49.151Z,11.48
2023-03-20T14:25:24.128Z,10.32
2023-03-20T14:28:07.931Z,17.55
2023-03-20T14:30:45.076Z,12.95
2023-03-20T14:33:17.716Z,10.85
2023-03-20T14:35:52.000Z,9.63
2023-03-20T14:38:27.875Z,12.00
2023-03-20T14:41:01.227Z,12.35
2023-03-20T14:43:33.761Z,18.25
2023-03-20T14:46:21.127Z,10.02
2023-03-20T14:48:54.876Z,23.55
2023-03-20T14:51:37.386Z,11.20
2023-03-20T14:54:22.084Z,10.85
2023-03-20T14:56:55.713Z,15.88
2023-03-20T14:59:32.703Z,66.50
2023-03-20T15:02:05.729Z,27.98
2023-03-20T15:04:39.811Z,10.60
2023-03-20T15:07:21.880Z,12.25
2023-03-20T15:09:55.935Z,10.75
2023-03-20T15:12:31.415Z,12.95
2023-03-20T15:15:06.102Z,12.18
2023-03-20T15:17:45.020Z,11.63
2023-03-20T15:20:19.489Z,13.40
2023-03-20T15:22:57.996Z,12.02
2023-03-20T15:25:36.582Z,12.60
2023-03-20T15:28:12.975Z,19.48
2023-03-20T15:30:46.643Z,13.65
2023-03-20T15:33:29.704Z,17.63
2023-03-20T15:36:15.484Z,17.60
2023-03-20T15:38:48.694Z,16.48
2023-03-20T15:41:26.492Z,16.98
2023-03-20T15:44:14.959Z,18.50
2023-03-20T15:46:58.594Z,30.00
2023-03-20T15:49:32.296Z,17.73
2023-03-20T15:52:07.322Z,18.00
2023-03-20T15:54:42.296Z,16.33
2023-03-20T15:57:18.845Z,14.07
2023-03-20T15:59:51.955Z,15.35
2023-03-20T16:02:25.047Z,16.58
2023-03-20T16:04:58.434Z,11.38
2023-03-20T16:07:32.596Z,13.80
2023-03-20T16:10:13.167Z,11.35
2023-03-20T16:12:55.503Z,19.45
2023-03-20T16:15:31.748Z,17.63
2023-03-20T16:18:05.276Z,14.10
2023-03-20T16:20:41.851Z,14.63
2023-03-20T16:23:17.263Z,16.63
2023-03-20T16:25:50.686Z,16.15
2023-03-20T16:28:25.351Z,7.53
2023-03-20T16:31:14.206Z,7.00
2023-03-20T16:33:47.105Z,19.92
2023-03-20T16:36:29.328Z,15.45
2023-03-20T16:39:08.158Z,16.48
2023-03-20T16:41:41.498Z,3.53
2023-03-20T16:44:22.850Z,8.18
2023-03-20T16:47:04.739Z,8.93
2023-03-20T16:49:55.889Z,4.60
2023-03-20T16:52:29.715Z,17.50
2023-03-20T16:55:02.440Z,9.45
2023-03-20T16:57:36.753Z,8.07
2023-03-20T17:00:29.637Z,5.93
2023-03-20T17:03:25.596Z,25.00
2023-03-20T17:06:00.032Z,45.08
2023-03-20T17:08:37.258Z,21.42
2023-03-20T17:11:12.083Z,27.27
2023-03-20T17:13:45.023Z,15.63
2023-03-20T17:16:19.519Z,15.07
2023-03-20T17:19:19.128Z,19.88
2023-03-20T17:21:51.725Z,10.63
2023-03-20T17:24:24.829Z,14.30
2023-03-20T17:26:57.983Z,34.03
2023-03-20T17:29:31.121Z,27.42
2023-03-20T17:32:09.285Z,21.17
2023-03-20T17:34:43.328Z,15.90
2023-03-20T17:37:18.941Z,15.20
2023-03-20T17:39:51.962Z,18.10
2023-03-20T17:42:27.091Z,26.25
2023-03-20T17:45:01.591Z,26.00
2023-03-20T17:47:34.267Z,32.25
2023-03-20T17:50:07.448Z,20.98
2023-03-20T17:52:40.566Z,47.60
2023-03-20T17:55:13.617Z,45.05
2023-03-20T17:57:46.382Z,24.15
2023-03-20T18:00:22.154Z,15.90
2023-03-20T18:02:54.889Z,15.20
2023-03-20T18:05:28.992Z,16.00
2023-03-20T18:08:01.879Z,32.15
2023-03-20T18:10:36.317Z,30.02
2023-03-20T18:13:09.318Z,23.13
2023-03-20T18:15:42.353Z,18.02
2023-03-20T18:18:14.842Z,20.95
2023-03-20T18:20:48.094Z,28.70
2023-03-20T18:23:21.178Z,36.60
2023-03-20T18:25:54.079Z,28.33
2023-03-20T18:28:26.676Z,19.73
2023-03-20T18:30:59.659Z,35.67
2023-03-20T18:33:32.261Z,18.23
2023-03-20T18:36:05.487Z,45.55
2023-03-20T18:38:38.085Z,58.47
2023-03-20T18:41:11.982Z,49.25
2023-03-20T18:43:46.763Z,17.73
2023-03-20T18:46:21.288Z,13.77
2023-03-20T18:48:54.242Z,15.90
2023-03-20T18:51:27.149Z,22.70
2023-03-20T18:53:59.800Z,17.00
2023-03-20T18:56:34.312Z,17.08
2023-03-20T18:59:08.275Z,25.55
2023-03-20T19:01:41.489Z,36.90
2023-03-20T19:04:14.146Z,30.33
2023-03-20T19:06:47.312Z,25.67
2023-03-20T19:09:20.115Z,25.40
2023-03-20T19:11:53.062Z,21.70
2023-03-20T19:14:26.298Z,17.90
2023-03-20T19:16:59.226Z,24.67
2023-03-20T19:19:31.960Z,20.73
2023-03-20T19:22:05.536Z,16.38
2023-03-20T19:24:38.102Z,15.05
2023-03-20T19:27:17.493Z,13.18
2023-03-20T19:29:50.404Z,22.30
2023-03-20T19:32:23.593Z,19.77
2023-03-20T19:35:40.852Z,14.98
2023-03-20T19:37:49.237Z,24.40
2023-03-20T19:40:27.828Z,21.33
2023-03-20T19:43:03.654Z,25.30
2023-03-20T19:45:37.864Z,22.08
2023-03-20T19:48:18.738Z,25.08
2023-03-20T19:50:51.508Z,22.67
2023-03-20T19:53:28.005Z,24.40
2023-03-20T19:56:02.817Z,17.45
2023-03-20T19:58:38.960Z,20.08
2023-03-20T20:01:15.828Z,24.85
2023-03-20T20:03:50.197Z,36.65
2023-03-20T20:06:30.129Z,32.95
2023-03-20T20:09:05.548Z,22.98
2023-03-20T20:11:38.165Z,17.50
2023-03-20T20:14:14.432Z,17.00
2023-03-20T20:16:49.203Z,32.30
2023-03-20T20:19:22.373Z,26.35
2023-03-20T20:22:20.148Z,128.50
2023-03-20T20:24:49.532Z,92.95
2023-03-20T20:27:22.180Z,45.05
2023-03-20T20:29:55.239Z,31.02
2023-03-20T20:32:29.245Z,46.45
2023-03-20T20:35:47.363Z,52.15
2023-03-20T20:40:57.914Z,42.45
2023-03-20T20:44:06.828Z,30.83
2023-03-20T20:46:28.490Z,37.38
2023-03-20T20:49:16.350Z,36.80
2023-03-20T20:51:55.601Z,38.72
2023-03-20T20:54:29.733Z,23.02
2023-03-20T20:57:02.596Z,22.35
2023-03-20T20:59:38.058Z,17.30
2023-03-20T21:02:12.006Z,19.98
2023-03-20T21:04:44.987Z,24.38
2023-03-20T21:07:17.996Z,27.52
2023-03-20T21:09:50.954Z,34.33
2023-03-20T21:12:36.422Z,33.28
2023-03-20T21:15:13.116Z,31.77
2023-03-20T21:18:00.072Z,32.88
2023-03-20T21:20:34.263Z,33.78
2023-03-20T21:23:07.338Z,28.42
2023-03-20T21:25:41.809Z,36.60
2023-03-20T21:28:20.661Z,38.13
2023-03-20T21:31:22.704Z,31.13
2023-03-20T21:33:51.886Z,24.45
2023-03-20T21:36:24.538Z,34.38
2023-03-20T21:39:13.658Z,36.22
2023-03-20T21:41:46.349Z,38.50
2023-03-20T21:44:48.278Z,27.08
2023-03-20T21:48:04.232Z,32.60
2023-03-20T21:53:36.379Z,25.30
2023-03-20T21:56:37.732Z,20.10
2023-03-20T22:05:16.834Z,20.10
2023-03-20T22:08:18.035Z,16.23
2023-03-20T22:11:09.468Z,17.27
2023-03-20T22:25:27.557Z,21.85
2023-03-20T22:28:26.683Z,13.95
2023-03-20T22:31:19.700Z,21.50
2023-03-20T22:42:43.361Z,16.67
2023-03-20T22:45:00.430Z,18.40
2023-03-20T22:47:34.493Z,18.88
2023-03-20T22:50:07.374Z,19.77
2023-03-20T22:52:49.220Z,16.17
2023-03-20T22:58:06.402Z,17.02
2023-03-20T23:00:41.165Z,18.17
2023-03-20T23:03:25.607Z,19.00
2023-03-20T23:06:09.623Z,30.75
2023-03-20T23:08:52.084Z,21.25
2023-03-20T23:11:28.366Z,27.17
2023-03-20T23:14:01.858Z,23.70
2023-03-20T23:16:36.525Z,21.50
2023-03-20T23:19:09.731Z,24.23
2023-03-20T23:21:42.252Z,22.70
2023-03-20T23:24:15.162Z,24.45
2023-03-20T23:26:47.968Z,27.55
2023-03-20T23:29:21.165Z,21.20
2023-03-20T23:31:53.959Z,14.43
2023-03-20T23:34:27.059Z,14.38
2023-03-20T23:36:59.596Z,20.52
2023-03-20T23:39:32.660Z,20.83
2023-03-20T23:42:17.354Z,21.88
2023-03-20T23:45:02.150Z,19.38
2023-03-20T23:47:44.899Z,19.05
2023-03-20T23:50:28.525Z,21.90
2023-03-20T23:53:17.582Z,21.05
2023-03-20T23:55:53.933Z,21.50
2023-03-20T23:58:27.243Z,23.95
